Saint Eleanors, Canada
Current Conditions -  °F | °C
As of 12:00 PM on Tuesday 21 Oct 2014 (Local Time) from CYYG Reporting Station
Scattered Clouds Scattered Clouds  
Wind Chill: 43°   Ceiling: Unl
Heat Index: 48°   Visibility: 15mi
Dew Point: 32°   Wind: 13mph
Humidity: 54%   Direction: 230°SW
Pressure: 30.13"   Gusts: NA
Location:  46.42°N, 63.82°W
Report Text: CYYG 211500Z 23011KT 15SM FEW036 SCT280 09/00 A3013 RMK CF1CI4 CF TR SLP204
Loading
Personal Weather Stations






























Interactive Weather Map
Tropical Storm Tracking
New forecast layout! Learn more

10-Day Weather Forecast

Advertisements
Track Severe Weather on mobile